sensor_id;sensor_type;location;lat;lon;timestamp;P1;durP1;ratioP1;P2;durP2;ratioP2
62582;SDS011;48641;51.676;5.808;2023-06-22T00:02:24;4.13;;;1.40;;
62582;SDS011;48641;51.676;5.808;2023-06-22T00:04:50;4.72;;;1.50;;
62582;SDS011;48641;51.676;5.808;2023-06-22T00:07:16;3.38;;;1.50;;
62582;SDS011;48641;51.676;5.808;2023-06-22T00:09:41;3.72;;;1.80;;
62582;SDS011;48641;51.676;5.808;2023-06-22T00:12:07;3.88;;;1.55;;
62582;SDS011;48641;51.676;5.808;2023-06-22T00:14:33;4.65;;;1.67;;
62582;SDS011;48641;51.676;5.808;2023-06-22T00:16:58;3.50;;;1.30;;
62582;SDS011;48641;51.676;5.808;2023-06-22T00:19:24;3.53;;;1.58;;
62582;SDS011;48641;51.676;5.808;2023-06-22T00:21:50;3.63;;;1.40;;
62582;SDS011;48641;51.676;5.808;2023-06-22T00:24:18;2.95;;;1.60;;
62582;SDS011;48641;51.676;5.808;2023-06-22T00:26:44;3.65;;;1.70;;
62582;SDS011;48641;51.676;5.808;2023-06-22T00:29:10;3.60;;;1.70;;
62582;SDS011;48641;51.676;5.808;2023-06-22T00:31:36;3.03;;;1.40;;
62582;SDS011;48641;51.676;5.808;2023-06-22T00:34:02;4.07;;;1.50;;
62582;SDS011;48641;51.676;5.808;2023-06-22T00:36:27;4.15;;;1.50;;
62582;SDS011;48641;51.676;5.808;2023-06-22T00:38:53;4.18;;;1.70;;
62582;SDS011;48641;51.676;5.808;2023-06-22T00:41:18;3.70;;;1.50;;
62582;SDS011;48641;51.676;5.808;2023-06-22T00:43:44;2.95;;;1.40;;
62582;SDS011;48641;51.676;5.808;2023-06-22T00:46:10;4.43;;;1.67;;
62582;SDS011;48641;51.676;5.808;2023-06-22T00:48:36;4.15;;;1.75;;
62582;SDS011;48641;51.676;5.808;2023-06-22T00:51:02;3.60;;;1.50;;
62582;SDS011;48641;51.676;5.808;2023-06-22T00:53:28;4.72;;;1.60;;
62582;SDS011;48641;51.676;5.808;2023-06-22T00:55:54;3.30;;;1.50;;
62582;SDS011;48641;51.676;5.808;2023-06-22T00:58:21;3.92;;;1.63;;
62582;SDS011;48641;51.676;5.808;2023-06-22T01:00:47;3.83;;;1.80;;
62582;SDS011;48641;51.676;5.808;2023-06-22T01:03:13;3.28;;;1.50;;
62582;SDS011;48641;51.676;5.808;2023-06-22T01:05:39;4.53;;;1.60;;
62582;SDS011;48641;51.676;5.808;2023-06-22T01:13:32;4.10;;;1.60;;
62582;SDS011;48641;51.676;5.808;2023-06-22T01:16:31;4.35;;;1.63;;
62582;SDS011;48641;51.676;5.808;2023-06-22T01:19:00;4.30;;;1.60;;
62582;SDS011;48641;51.676;5.808;2023-06-22T01:21:34;2.97;;;1.35;;
62582;SDS011;48641;51.676;5.808;2023-06-22T01:29:23;3.88;;;1.45;;
62582;SDS011;48641;51.676;5.808;2023-06-22T01:31:51;4.15;;;1.50;;
62582;SDS011;48641;51.676;5.808;2023-06-22T01:36:46;3.15;;;1.58;;
62582;SDS011;48641;51.676;5.808;2023-06-22T01:39:12;3.45;;;1.60;;
62582;SDS011;48641;51.676;5.808;2023-06-22T01:41:39;3.13;;;1.50;;
62582;SDS011;48641;51.676;5.808;2023-06-22T01:44:07;3.88;;;1.88;;
62582;SDS011;48641;51.676;5.808;2023-06-22T01:46:34;3.25;;;1.60;;
62582;SDS011;48641;51.676;5.808;2023-06-22T01:49:02;3.30;;;1.77;;
62582;SDS011;48641;51.676;5.808;2023-06-22T01:51:27;3.47;;;1.77;;
62582;SDS011;48641;51.676;5.808;2023-06-22T01:53:53;3.25;;;1.60;;
62582;SDS011;48641;51.676;5.808;2023-06-22T01:56:19;2.92;;;1.40;;
62582;SDS011;48641;51.676;5.808;2023-06-22T01:58:50;3.53;;;1.60;;
62582;SDS011;48641;51.676;5.808;2023-06-22T02:01:24;3.58;;;1.38;;
62582;SDS011;48641;51.676;5.808;2023-06-22T02:04:06;3.60;;;1.60;;
62582;SDS011;48641;51.676;5.808;2023-06-22T02:06:37;4.05;;;1.70;;
62582;SDS011;48641;51.676;5.808;2023-06-22T02:09:11;4.13;;;1.60;;
62582;SDS011;48641;51.676;5.808;2023-06-22T02:11:41;4.22;;;1.70;;
62582;SDS011;48641;51.676;5.808;2023-06-22T02:14:09;3.38;;;1.60;;
62582;SDS011;48641;51.676;5.808;2023-06-22T02:16:35;3.25;;;1.70;;
62582;SDS011;48641;51.676;5.808;2023-06-22T02:19:02;4.60;;;1.63;;
62582;SDS011;48641;51.676;5.808;2023-06-22T02:21:29;4.47;;;1.90;;
62582;SDS011;48641;51.676;5.808;2023-06-22T02:23:56;4.93;;;1.85;;
62582;SDS011;48641;51.676;5.808;2023-06-22T02:26:21;3.67;;;1.70;;
62582;SDS011;48641;51.676;5.808;2023-06-22T02:28:48;3.25;;;1.60;;
62582;SDS011;48641;51.676;5.808;2023-06-22T02:31:14;4.75;;;1.83;;
62582;SDS011;48641;51.676;5.808;2023-06-22T02:33:41;3.75;;;1.65;;
62582;SDS011;48641;51.676;5.808;2023-06-22T02:36:06;2.80;;;1.48;;
62582;SDS011;48641;51.676;5.808;2023-06-22T02:38:34;5.18;;;1.85;;
62582;SDS011;48641;51.676;5.808;2023-06-22T02:41:01;3.95;;;1.70;;
62582;SDS011;48641;51.676;5.808;2023-06-22T02:43:27;4.22;;;1.75;;
62582;SDS011;48641;51.676;5.808;2023-06-22T02:45:53;4.93;;;1.77;;
62582;SDS011;48641;51.676;5.808;2023-06-22T02:48:19;4.03;;;1.70;;
62582;SDS011;48641;51.676;5.808;2023-06-22T02:50:44;4.18;;;1.80;;
62582;SDS011;48641;51.676;5.808;2023-06-22T02:53:10;3.60;;;1.70;;
62582;SDS011;48641;51.676;5.808;2023-06-22T02:55:35;3.53;;;1.67;;
62582;SDS011;48641;51.676;5.808;2023-06-22T02:58:01;3.90;;;1.70;;
62582;SDS011;48641;51.676;5.808;2023-06-22T03:00:30;4.13;;;1.80;;
62582;SDS011;48641;51.676;5.808;2023-06-22T03:02:56;4.15;;;1.60;;
62582;SDS011;48641;51.676;5.808;2023-06-22T03:05:22;5.80;;;1.95;;
62582;SDS011;48641;51.676;5.808;2023-06-22T03:07:48;4.45;;;1.77;;
62582;SDS011;48641;51.676;5.808;2023-06-22T03:10:14;3.67;;;1.77;;
62582;SDS011;48641;51.676;5.808;2023-06-22T03:12:41;4.93;;;2.00;;
62582;SDS011;48641;51.676;5.808;2023-06-22T03:15:08;5.18;;;2.15;;
62582;SDS011;48641;51.676;5.808;2023-06-22T03:17:35;3.90;;;1.70;;
62582;SDS011;48641;51.676;5.808;2023-06-22T03:20:03;5.10;;;2.33;;
62582;SDS011;48641;51.676;5.808;2023-06-22T03:22:39;4.97;;;2.33;;
62582;SDS011;48641;51.676;5.808;2023-06-22T03:25:07;5.13;;;2.03;;
62582;SDS011;48641;51.676;5.808;2023-06-22T03:30:01;3.47;;;1.60;;
62582;SDS011;48641;51.676;5.808;2023-06-22T03:32:27;3.65;;;1.80;;
62582;SDS011;48641;51.676;5.808;2023-06-22T03:34:53;6.55;;;2.47;;
62582;SDS011;48641;51.676;5.808;2023-06-22T03:37:18;4.45;;;1.90;;
62582;SDS011;48641;51.676;5.808;2023-06-22T03:39:44;5.00;;;2.00;;
62582;SDS011;48641;51.676;5.808;2023-06-22T03:42:10;4.78;;;1.75;;
62582;SDS011;48641;51.676;5.808;2023-06-22T03:44:35;5.18;;;1.98;;
62582;SDS011;48641;51.676;5.808;2023-06-22T03:47:02;4.57;;;2.20;;
62582;SDS011;48641;51.676;5.808;2023-06-22T03:49:29;5.35;;;2.25;;
62582;SDS011;48641;51.676;5.808;2023-06-22T03:51:54;5.13;;;2.17;;
62582;SDS011;48641;51.676;5.808;2023-06-22T03:54:20;4.90;;;2.10;;
62582;SDS011;48641;51.676;5.808;2023-06-22T03:56:45;5.25;;;2.10;;
62582;SDS011;48641;51.676;5.808;2023-06-22T03:59:11;4.28;;;1.95;;
62582;SDS011;48641;51.676;5.808;2023-06-22T04:01:37;5.13;;;2.17;;
62582;SDS011;48641;51.676;5.808;2023-06-22T04:04:02;5.78;;;2.17;;
62582;SDS011;48641;51.676;5.808;2023-06-22T04:06:28;4.20;;;2.08;;
62582;SDS011;48641;51.676;5.808;2023-06-22T04:08:54;4.65;;;1.95;;
62582;SDS011;48641;51.676;5.808;2023-06-22T04:11:19;5.45;;;2.30;;
62582;SDS011;48641;51.676;5.808;2023-06-22T04:13:45;6.18;;;2.25;;
62582;SDS011;48641;51.676;5.808;2023-06-22T04:16:10;4.70;;;1.90;;
62582;SDS011;48641;51.676;5.808;2023-06-22T04:18:36;4.35;;;1.90;;
62582;SDS011;48641;51.676;5.808;2023-06-22T04:21:02;5.32;;;2.20;;
62582;SDS011;48641;51.676;5.808;2023-06-22T04:23:28;4.93;;;2.00;;
62582;SDS011;48641;51.676;5.808;2023-06-22T04:25:53;5.10;;;2.08;;
62582;SDS011;48641;51.676;5.808;2023-06-22T04:28:21;4.65;;;2.08;;
62582;SDS011;48641;51.676;5.808;2023-06-22T04:30:47;4.57;;;2.20;;
62582;SDS011;48641;51.676;5.808;2023-06-22T04:33:16;5.28;;;2.10;;
62582;SDS011;48641;51.676;5.808;2023-06-22T04:35:42;4.35;;;2.20;;
62582;SDS011;48641;51.676;5.808;2023-06-22T04:38:11;4.45;;;1.98;;
62582;SDS011;48641;51.676;5.808;2023-06-22T04:40:40;5.15;;;2.13;;
62582;SDS011;48641;51.676;5.808;2023-06-22T04:43:06;4.57;;;2.05;;
62582;SDS011;48641;51.676;5.808;2023-06-22T04:45:32;5.03;;;1.92;;
62582;SDS011;48641;51.676;5.808;2023-06-22T04:47:58;4.28;;;2.13;;
62582;SDS011;48641;51.676;5.808;2023-06-22T04:50:23;4.07;;;1.98;;
62582;SDS011;48641;51.676;5.808;2023-06-22T04:52:49;5.22;;;2.10;;
62582;SDS011;48641;51.676;5.808;2023-06-22T04:55:16;5.50;;;2.30;;
62582;SDS011;48641;51.676;5.808;2023-06-22T04:57:47;5.80;;;2.63;;
62582;SDS011;48641;51.676;5.808;2023-06-22T05:00:17;4.95;;;2.20;;
62582;SDS011;48641;51.676;5.808;2023-06-22T05:02:47;5.47;;;2.17;;
62582;SDS011;48641;51.676;5.808;2023-06-22T05:07:49;5.68;;;2.25;;
62582;SDS011;48641;51.676;5.808;2023-06-22T05:10:17;4.82;;;2.10;;
62582;SDS011;48641;51.676;5.808;2023-06-22T05:12:45;5.63;;;2.40;;
62582;SDS011;48641;51.676;5.808;2023-06-22T05:15:11;5.72;;;2.38;;
62582;SDS011;48641;51.676;5.808;2023-06-22T05:17:37;4.28;;;1.70;;
62582;SDS011;48641;51.676;5.808;2023-06-22T05:20:08;4.47;;;2.00;;
62582;SDS011;48641;51.676;5.808;2023-06-22T05:22:34;5.40;;;2.30;;
62582;SDS011;48641;51.676;5.808;2023-06-22T05:25:00;5.25;;;2.50;;
62582;SDS011;48641;51.676;5.808;2023-06-22T05:27:26;6.32;;;2.40;;
62582;SDS011;48641;51.676;5.808;2023-06-22T05:29:51;5.43;;;2.30;;
62582;SDS011;48641;51.676;5.808;2023-06-22T05:32:17;5.03;;;2.22;;
62582;SDS011;48641;51.676;5.808;2023-06-22T05:34:43;5.40;;;2.30;;
62582;SDS011;48641;51.676;5.808;2023-06-22T05:37:09;5.75;;;2.65;;
62582;SDS011;48641;51.676;5.808;2023-06-22T05:39:35;5.80;;;2.40;;
62582;SDS011;48641;51.676;5.808;2023-06-22T05:42:03;5.47;;;2.38;;
62582;SDS011;48641;51.676;5.808;2023-06-22T05:44:32;5.78;;;2.60;;
62582;SDS011;48641;51.676;5.808;2023-06-22T05:46:58;7.28;;;3.20;;
62582;SDS011;48641;51.676;5.808;2023-06-22T05:49:24;7.57;;;3.10;;
62582;SDS011;48641;51.676;5.808;2023-06-22T05:51:54;7.45;;;3.30;;
62582;SDS011;48641;51.676;5.808;2023-06-22T05:54:21;7.35;;;3.28;;
62582;SDS011;48641;51.676;5.808;2023-06-22T05:56:47;6.82;;;3.45;;
62582;SDS011;48641;51.676;5.808;2023-06-22T05:59:13;7.18;;;3.67;;
62582;SDS011;48641;51.676;5.808;2023-06-22T06:01:39;7.57;;;3.20;;
62582;SDS011;48641;51.676;5.808;2023-06-22T06:04:05;8.70;;;3.83;;
62582;SDS011;48641;51.676;5.808;2023-06-22T06:06:33;7.72;;;3.53;;
62582;SDS011;48641;51.676;5.808;2023-06-22T06:09:02;10.90;;;4.40;;
62582;SDS011;48641;51.676;5.808;2023-06-22T06:11:28;8.93;;;4.10;;
62582;SDS011;48641;51.676;5.808;2023-06-22T06:13:54;9.20;;;5.03;;
62582;SDS011;48641;51.676;5.808;2023-06-22T06:16:20;8.98;;;4.25;;
62582;SDS011;48641;51.676;5.808;2023-06-22T06:18:46;8.55;;;4.28;;
62582;SDS011;48641;51.676;5.808;2023-06-22T06:21:11;7.85;;;4.47;;
62582;SDS011;48641;51.676;5.808;2023-06-22T06:23:37;7.72;;;4.18;;
62582;SDS011;48641;51.676;5.808;2023-06-22T06:26:02;10.02;;;4.90;;
62582;SDS011;48641;51.676;5.808;2023-06-22T06:28:32;9.20;;;4.88;;
62582;SDS011;48641;51.676;5.808;2023-06-22T06:30:58;8.63;;;4.75;;
62582;SDS011;48641;51.676;5.808;2023-06-22T06:33:24;8.48;;;5.05;;
62582;SDS011;48641;51.676;5.808;2023-06-22T06:35:49;9.88;;;4.97;;
62582;SDS011;48641;51.676;5.808;2023-06-22T06:38:15;9.13;;;5.13;;
62582;SDS011;48641;51.676;5.808;2023-06-22T06:40:41;10.07;;;5.43;;
62582;SDS011;48641;51.676;5.808;2023-06-22T06:43:06;11.38;;;5.15;;
62582;SDS011;48641;51.676;5.808;2023-06-22T06:45:32;8.05;;;5.03;;
62582;SDS011;48641;51.676;5.808;2023-06-22T06:47:59;8.32;;;4.80;;
62582;SDS011;48641;51.676;5.808;2023-06-22T06:50:25;8.32;;;5.10;;
62582;SDS011;48641;51.676;5.808;2023-06-22T06:52:51;8.75;;;4.78;;
62582;SDS011;48641;51.676;5.808;2023-06-22T06:55:17;9.15;;;5.25;;
62582;SDS011;48641;51.676;5.808;2023-06-22T06:57:44;9.65;;;5.95;;
62582;SDS011;48641;51.676;5.808;2023-06-22T07:00:13;10.35;;;5.47;;
62582;SDS011;48641;51.676;5.808;2023-06-22T07:02:40;10.93;;;6.18;;
62582;SDS011;48641;51.676;5.808;2023-06-22T07:05:08;14.73;;;6.68;;
62582;SDS011;48641;51.676;5.808;2023-06-22T07:07:34;14.85;;;6.28;;
62582;SDS011;48641;51.676;5.808;2023-06-22T07:10:00;10.13;;;5.15;;
62582;SDS011;48641;51.676;5.808;2023-06-22T07:12:25;9.52;;;5.32;;
62582;SDS011;48641;51.676;5.808;2023-06-22T07:14:52;12.55;;;5.40;;
62582;SDS011;48641;51.676;5.808;2023-06-22T07:17:18;12.18;;;5.05;;
62582;SDS011;48641;51.676;5.808;2023-06-22T07:19:43;10.63;;;4.80;;
62582;SDS011;48641;51.676;5.808;2023-06-22T07:22:09;11.77;;;4.93;;
62582;SDS011;48641;51.676;5.808;2023-06-22T07:24:34;9.45;;;4.97;;
62582;SDS011;48641;51.676;5.808;2023-06-22T07:27:00;9.55;;;4.30;;
62582;SDS011;48641;51.676;5.808;2023-06-22T07:29:27;10.80;;;4.75;;
62582;SDS011;48641;51.676;5.808;2023-06-22T07:31:52;9.98;;;4.53;;
62582;SDS011;48641;51.676;5.808;2023-06-22T07:34:21;10.07;;;4.40;;
62582;SDS011;48641;51.676;5.808;2023-06-22T07:36:47;9.85;;;4.20;;
62582;SDS011;48641;51.676;5.808;2023-06-22T07:39:13;9.30;;;3.75;;
62582;SDS011;48641;51.676;5.808;2023-06-22T07:41:39;7.70;;;3.53;;
62582;SDS011;48641;51.676;5.808;2023-06-22T07:44:08;8.23;;;3.88;;
62582;SDS011;48641;51.676;5.808;2023-06-22T07:46:34;7.57;;;3.58;;
62582;SDS011;48641;51.676;5.808;2023-06-22T07:48:59;10.10;;;3.72;;
62582;SDS011;48641;51.676;5.808;2023-06-22T07:51:26;10.55;;;4.22;;
62582;SDS011;48641;51.676;5.808;2023-06-22T07:53:52;8.65;;;3.72;;
62582;SDS011;48641;51.676;5.808;2023-06-22T07:56:17;7.47;;;3.63;;
62582;SDS011;48641;51.676;5.808;2023-06-22T08:01:13;7.50;;;3.55;;
62582;SDS011;48641;51.676;5.808;2023-06-22T08:03:39;9.25;;;3.60;;
62582;SDS011;48641;51.676;5.808;2023-06-22T08:06:05;7.05;;;3.40;;
62582;SDS011;48641;51.676;5.808;2023-06-22T08:08:31;8.45;;;3.45;;
62582;SDS011;48641;51.676;5.808;2023-06-22T08:10:56;5.78;;;3.10;;
62582;SDS011;48641;51.676;5.808;2023-06-22T08:13:22;6.60;;;3.22;;
62582;SDS011;48641;51.676;5.808;2023-06-22T08:15:48;7.13;;;3.25;;
62582;SDS011;48641;51.676;5.808;2023-06-22T08:18:14;6.95;;;3.65;;
62582;SDS011;48641;51.676;5.808;2023-06-22T08:20:41;6.80;;;3.40;;
62582;SDS011;48641;51.676;5.808;2023-06-22T08:23:07;7.10;;;3.40;;
62582;SDS011;48641;51.676;5.808;2023-06-22T08:25:33;7.00;;;3.20;;
62582;SDS011;48641;51.676;5.808;2023-06-22T08:27:59;6.90;;;3.15;;
62582;SDS011;48641;51.676;5.808;2023-06-22T08:30:25;7.45;;;3.50;;
62582;SDS011;48641;51.676;5.808;2023-06-22T08:32:52;6.45;;;3.28;;
62582;SDS011;48641;51.676;5.808;2023-06-22T08:35:18;7.68;;;3.53;;
62582;SDS011;48641;51.676;5.808;2023-06-22T08:37:44;7.15;;;3.17;;
62582;SDS011;48641;51.676;5.808;2023-06-22T08:40:16;5.72;;;3.15;;
62582;SDS011;48641;51.676;5.808;2023-06-22T08:42:42;7.75;;;3.53;;
62582;SDS011;48641;51.676;5.808;2023-06-22T08:45:08;6.93;;;3.20;;
62582;SDS011;48641;51.676;5.808;2023-06-22T08:47:34;6.25;;;2.90;;
62582;SDS011;48641;51.676;5.808;2023-06-22T08:50:00;5.82;;;2.63;;
62582;SDS011;48641;51.676;5.808;2023-06-22T08:52:29;6.72;;;3.08;;
62582;SDS011;48641;51.676;5.808;2023-06-22T08:54:54;6.75;;;3.08;;
62582;SDS011;48641;51.676;5.808;2023-06-22T08:57:23;6.97;;;3.47;;
62582;SDS011;48641;51.676;5.808;2023-06-22T08:59:49;6.10;;;3.05;;
62582;SDS011;48641;51.676;5.808;2023-06-22T09:02:17;7.50;;;3.05;;
62582;SDS011;48641;51.676;5.808;2023-06-22T09:04:42;6.13;;;3.08;;
62582;SDS011;48641;51.676;5.808;2023-06-22T09:07:08;6.68;;;3.33;;
62582;SDS011;48641;51.676;5.808;2023-06-22T09:09:34;6.80;;;2.70;;
62582;SDS011;48641;51.676;5.808;2023-06-22T09:11:59;6.18;;;3.00;;
62582;SDS011;48641;51.676;5.808;2023-06-22T09:14:25;5.72;;;2.92;;
62582;SDS011;48641;51.676;5.808;2023-06-22T09:16:51;6.50;;;3.17;;
62582;SDS011;48641;51.676;5.808;2023-06-22T09:19:16;5.82;;;2.95;;
62582;SDS011;48641;51.676;5.808;2023-06-22T09:21:42;6.68;;;2.95;;
62582;SDS011;48641;51.676;5.808;2023-06-22T09:24:07;5.95;;;3.15;;
62582;SDS011;48641;51.676;5.808;2023-06-22T09:26:33;6.13;;;2.85;;
62582;SDS011;48641;51.676;5.808;2023-06-22T09:28:58;6.43;;;3.25;;
62582;SDS011;48641;51.676;5.808;2023-06-22T09:31:24;5.68;;;2.80;;
62582;SDS011;48641;51.676;5.808;2023-06-22T09:33:53;5.43;;;2.90;;
62582;SDS011;48641;51.676;5.808;2023-06-22T09:36:19;5.55;;;2.88;;
62582;SDS011;48641;51.676;5.808;2023-06-22T09:38:47;6.63;;;2.60;;
62582;SDS011;48641;51.676;5.808;2023-06-22T09:41:20;5.63;;;2.50;;
62582;SDS011;48641;51.676;5.808;2023-06-22T09:43:45;5.13;;;2.80;;
62582;SDS011;48641;51.676;5.808;2023-06-22T09:46:12;6.05;;;3.42;;
62582;SDS011;48641;51.676;5.808;2023-06-22T09:48:38;6.00;;;2.53;;
62582;SDS011;48641;51.676;5.808;2023-06-22T09:51:03;5.78;;;2.90;;
62582;SDS011;48641;51.676;5.808;2023-06-22T09:53:29;6.10;;;2.70;;
62582;SDS011;48641;51.676;5.808;2023-06-22T09:55:54;5.03;;;2.60;;
62582;SDS011;48641;51.676;5.808;2023-06-22T09:58:20;5.05;;;2.63;;
62582;SDS011;48641;51.676;5.808;2023-06-22T10:00:45;5.35;;;2.60;;
62582;SDS011;48641;51.676;5.808;2023-06-22T10:03:11;6.13;;;3.00;;
62582;SDS011;48641;51.676;5.808;2023-06-22T10:05:37;5.55;;;2.88;;
62582;SDS011;48641;51.676;5.808;2023-06-22T10:08:02;5.25;;;2.75;;
62582;SDS011;48641;51.676;5.808;2023-06-22T10:10:28;5.70;;;2.95;;
62582;SDS011;48641;51.676;5.808;2023-06-22T10:12:54;5.78;;;2.90;;
62582;SDS011;48641;51.676;5.808;2023-06-22T10:15:21;5.43;;;2.47;;
62582;SDS011;48641;51.676;5.808;2023-06-22T10:17:47;4.50;;;2.30;;
62582;SDS011;48641;51.676;5.808;2023-06-22T10:20:13;5.10;;;2.40;;
62582;SDS011;48641;51.676;5.808;2023-06-22T10:22:43;6.07;;;2.97;;
62582;SDS011;48641;51.676;5.808;2023-06-22T10:25:09;5.35;;;2.55;;
62582;SDS011;48641;51.676;5.808;2023-06-22T10:27:36;5.60;;;2.60;;
62582;SDS011;48641;51.676;5.808;2023-06-22T10:30:04;5.75;;;2.42;;
62582;SDS011;48641;51.676;5.808;2023-06-22T10:32:31;5.93;;;2.88;;
62582;SDS011;48641;51.676;5.808;2023-06-22T10:34:57;5.07;;;2.58;;
62582;SDS011;48641;51.676;5.808;2023-06-22T10:37:23;4.75;;;2.50;;
62582;SDS011;48641;51.676;5.808;2023-06-22T10:39:49;5.63;;;2.75;;
62582;SDS011;48641;51.676;5.808;2023-06-22T10:42:14;5.40;;;2.42;;
62582;SDS011;48641;51.676;5.808;2023-06-22T10:44:40;5.38;;;2.70;;
62582;SDS011;48641;51.676;5.808;2023-06-22T10:47:08;5.93;;;2.50;;
62582;SDS011;48641;51.676;5.808;2023-06-22T10:49:33;5.60;;;2.72;;
62582;SDS011;48641;51.676;5.808;2023-06-22T10:51:59;4.72;;;2.50;;
62582;SDS011;48641;51.676;5.808;2023-06-22T10:54:25;4.80;;;2.33;;
62582;SDS011;48641;51.676;5.808;2023-06-22T10:56:50;5.38;;;2.40;;
62582;SDS011;48641;51.676;5.808;2023-06-22T10:59:16;5.72;;;2.45;;
62582;SDS011;48641;51.676;5.808;2023-06-22T11:01:41;5.15;;;2.63;;
62582;SDS011;48641;51.676;5.808;2023-06-22T11:04:07;4.40;;;2.28;;
62582;SDS011;48641;51.676;5.808;2023-06-22T11:06:33;5.38;;;3.05;;
62582;SDS011;48641;51.676;5.808;2023-06-22T11:08:58;4.78;;;2.60;;
62582;SDS011;48641;51.676;5.808;2023-06-22T11:11:25;4.78;;;2.72;;
62582;SDS011;48641;51.676;5.808;2023-06-22T11:13:50;4.50;;;2.40;;
62582;SDS011;48641;51.676;5.808;2023-06-22T11:16:17;4.65;;;2.60;;
62582;SDS011;48641;51.676;5.808;2023-06-22T11:18:43;4.15;;;2.42;;
62582;SDS011;48641;51.676;5.808;2023-06-22T11:21:08;4.30;;;2.33;;
62582;SDS011;48641;51.676;5.808;2023-06-22T11:23:34;5.35;;;2.42;;
62582;SDS011;48641;51.676;5.808;2023-06-22T11:25:59;5.80;;;3.03;;
62582;SDS011;48641;51.676;5.808;2023-06-22T11:28:25;4.88;;;2.63;;
62582;SDS011;48641;51.676;5.808;2023-06-22T11:30:51;6.40;;;2.47;;
62582;SDS011;48641;51.676;5.808;2023-06-22T11:33:16;6.20;;;2.60;;
62582;SDS011;48641;51.676;5.808;2023-06-22T11:35:42;4.38;;;2.40;;
62582;SDS011;48641;51.676;5.808;2023-06-22T11:38:08;6.15;;;2.60;;
62582;SDS011;48641;51.676;5.808;2023-06-22T11:40:33;4.97;;;2.50;;
62582;SDS011;48641;51.676;5.808;2023-06-22T11:42:59;4.13;;;2.15;;
62582;SDS011;48641;51.676;5.808;2023-06-22T11:45:24;5.07;;;2.40;;
62582;SDS011;48641;51.676;5.808;2023-06-22T11:47:50;5.13;;;2.60;;
62582;SDS011;48641;51.676;5.808;2023-06-22T11:50:16;5.63;;;2.60;;
62582;SDS011;48641;51.676;5.808;2023-06-22T11:52:42;5.28;;;2.90;;
62582;SDS011;48641;51.676;5.808;2023-06-22T11:55:07;4.90;;;2.60;;
62582;SDS011;48641;51.676;5.808;2023-06-22T11:57:33;5.18;;;2.53;;
62582;SDS011;48641;51.676;5.808;2023-06-22T12:00:00;5.78;;;2.70;;
62582;SDS011;48641;51.676;5.808;2023-06-22T12:02:27;5.45;;;2.70;;
62582;SDS011;48641;51.676;5.808;2023-06-22T12:04:52;5.72;;;2.80;;
62582;SDS011;48641;51.676;5.808;2023-06-22T12:07:21;4.30;;;2.33;;
62582;SDS011;48641;51.676;5.808;2023-06-22T12:09:46;4.93;;;2.60;;
62582;SDS011;48641;51.676;5.808;2023-06-22T12:12:12;5.05;;;2.30;;
62582;SDS011;48641;51.676;5.808;2023-06-22T12:14:38;4.70;;;2.40;;
62582;SDS011;48641;51.676;5.808;2023-06-22T12:17:04;4.75;;;2.47;;
62582;SDS011;48641;51.676;5.808;2023-06-22T12:19:30;5.40;;;2.70;;
62582;SDS011;48641;51.676;5.808;2023-06-22T12:21:55;5.47;;;2.65;;
62582;SDS011;48641;51.676;5.808;2023-06-22T12:24:21;5.78;;;2.97;;
62582;SDS011;48641;51.676;5.808;2023-06-22T12:26:47;4.85;;;2.40;;
62582;SDS011;48641;51.676;5.808;2023-06-22T12:29:12;5.30;;;2.65;;
62582;SDS011;48641;51.676;5.808;2023-06-22T12:31:38;4.90;;;2.33;;
62582;SDS011;48641;51.676;5.808;2023-06-22T12:34:04;5.60;;;3.03;;
62582;SDS011;48641;51.676;5.808;2023-06-22T12:36:30;5.47;;;2.55;;
62582;SDS011;48641;51.676;5.808;2023-06-22T12:38:55;4.80;;;2.55;;
62582;SDS011;48641;51.676;5.808;2023-06-22T12:41:21;5.10;;;2.40;;
62582;SDS011;48641;51.676;5.808;2023-06-22T12:43:47;5.20;;;2.85;;
62582;SDS011;48641;51.676;5.808;2023-06-22T12:46:12;4.72;;;2.45;;
62582;SDS011;48641;51.676;5.808;2023-06-22T12:48:38;5.93;;;2.72;;
62582;SDS011;48641;51.676;5.808;2023-06-22T12:53:33;4.63;;;2.58;;
62582;SDS011;48641;51.676;5.808;2023-06-22T12:55:59;5.63;;;2.88;;
62582;SDS011;48641;51.676;5.808;2023-06-22T12:58:24;5.63;;;2.65;;
62582;SDS011;48641;51.676;5.808;2023-06-22T13:00:50;5.30;;;2.58;;
62582;SDS011;48641;51.676;5.808;2023-06-22T13:03:16;5.18;;;2.70;;
62582;SDS011;48641;51.676;5.808;2023-06-22T13:05:41;5.05;;;2.85;;
62582;SDS011;48641;51.676;5.808;2023-06-22T13:08:07;5.30;;;2.80;;
62582;SDS011;48641;51.676;5.808;2023-06-22T13:10:33;5.15;;;2.75;;
62582;SDS011;48641;51.676;5.808;2023-06-22T13:12:59;5.65;;;2.80;;
62582;SDS011;48641;51.676;5.808;2023-06-22T13:17:54;5.15;;;2.60;;
62582;SDS011;48641;51.676;5.808;2023-06-22T13:20:20;5.63;;;2.53;;
62582;SDS011;48641;51.676;5.808;2023-06-22T13:22:45;4.85;;;2.58;;
62582;SDS011;48641;51.676;5.808;2023-06-22T13:25:11;5.68;;;2.67;;
62582;SDS011;48641;51.676;5.808;2023-06-22T13:27:38;4.93;;;2.70;;
62582;SDS011;48641;51.676;5.808;2023-06-22T13:30:04;5.38;;;2.78;;
62582;SDS011;48641;51.676;5.808;2023-06-22T13:32:31;5.50;;;2.75;;
62582;SDS011;48641;51.676;5.808;2023-06-22T13:34:56;5.95;;;3.00;;
62582;SDS011;48641;51.676;5.808;2023-06-22T13:37:22;5.18;;;2.47;;
62582;SDS011;48641;51.676;5.808;2023-06-22T13:39:50;5.70;;;2.80;;
62582;SDS011;48641;51.676;5.808;2023-06-22T13:42:16;5.75;;;2.80;;
62582;SDS011;48641;51.676;5.808;2023-06-22T13:44:42;6.63;;;2.97;;
62582;SDS011;48641;51.676;5.808;2023-06-22T13:47:07;5.57;;;2.70;;
62582;SDS011;48641;51.676;5.808;2023-06-22T13:49:33;5.18;;;2.80;;
62582;SDS011;48641;51.676;5.808;2023-06-22T13:51:59;5.65;;;3.08;;
62582;SDS011;48641;51.676;5.808;2023-06-22T13:54:24;4.80;;;2.63;;
62582;SDS011;48641;51.676;5.808;2023-06-22T13:56:50;5.22;;;2.80;;
62582;SDS011;48641;51.676;5.808;2023-06-22T13:59:16;5.20;;;2.78;;
62582;SDS011;48641;51.676;5.808;2023-06-22T14:01:41;5.10;;;2.78;;
62582;SDS011;48641;51.676;5.808;2023-06-22T14:04:08;4.72;;;2.53;;
62582;SDS011;48641;51.676;5.808;2023-06-22T14:06:34;4.38;;;2.67;;
62582;SDS011;48641;51.676;5.808;2023-06-22T14:08:59;4.60;;;2.67;;
62582;SDS011;48641;51.676;5.808;2023-06-22T14:11:25;5.30;;;2.60;;
62582;SDS011;48641;51.676;5.808;2023-06-22T14:13:55;5.05;;;2.95;;
62582;SDS011;48641;51.676;5.808;2023-06-22T14:16:21;5.63;;;2.67;;
62582;SDS011;48641;51.676;5.808;2023-06-22T14:18:46;5.32;;;2.80;;
62582;SDS011;48641;51.676;5.808;2023-06-22T14:21:12;5.38;;;2.92;;
62582;SDS011;48641;51.676;5.808;2023-06-22T14:23:38;5.28;;;2.72;;
62582;SDS011;48641;51.676;5.808;2023-06-22T14:26:03;5.45;;;2.90;;
62582;SDS011;48641;51.676;5.808;2023-06-22T14:28:29;4.97;;;2.80;;
62582;SDS011;48641;51.676;5.808;2023-06-22T14:30:54;5.18;;;2.78;;
62582;SDS011;48641;51.676;5.808;2023-06-22T14:33:21;5.35;;;3.00;;
62582;SDS011;48641;51.676;5.808;2023-06-22T14:35:47;9.27;;;3.92;;
62582;SDS011;48641;51.676;5.808;2023-06-22T14:38:12;8.40;;;4.38;;
62582;SDS011;48641;51.676;5.808;2023-06-22T14:40:38;8.13;;;4.07;;
62582;SDS011;48641;51.676;5.808;2023-06-22T14:43:03;8.65;;;4.60;;
62582;SDS011;48641;51.676;5.808;2023-06-22T14:45:29;8.82;;;4.97;;
62582;SDS011;48641;51.676;5.808;2023-06-22T14:47:55;10.57;;;5.72;;
62582;SDS011;48641;51.676;5.808;2023-06-22T14:50:20;9.20;;;5.50;;
62582;SDS011;48641;51.676;5.808;2023-06-22T14:52:46;11.23;;;5.68;;
62582;SDS011;48641;51.676;5.808;2023-06-22T14:55:12;10.52;;;5.85;;
62582;SDS011;48641;51.676;5.808;2023-06-22T14:57:37;10.27;;;5.68;;
62582;SDS011;48641;51.676;5.808;2023-06-22T15:00:03;10.55;;;6.35;;
62582;SDS011;48641;51.676;5.808;2023-06-22T15:02:31;8.23;;;5.27;;
62582;SDS011;48641;51.676;5.808;2023-06-22T15:04:57;9.15;;;6.05;;
62582;SDS011;48641;51.676;5.808;2023-06-22T15:07:22;8.93;;;5.65;;
62582;SDS011;48641;51.676;5.808;2023-06-22T15:12:26;10.10;;;5.60;;